ITY1743 LIML-LICC
Flight info
| Callsign | ITY1743 |
|---|---|
| Flight time | 1h 34m |
| Altitude | 37000 |
| Route | LOGDI DCT OLNUK DCT LOMED DCT KUGIX DCT OST DCT AMANO DCT PELEN DCT UXUTA |
| Aircraft | A319/M-SDE3FGHIRWY/LB1 |
Departure
| Time | 2026-04-29 21:11 |
|---|---|
| Airport | Milano Linate Airport (LIML) |
Arrival
| Time | 2026-04-29 22:46 |
|---|---|
| Airport | Catania-Fontanarossa Airport (LICC) |
| Time | Latitude | Longitude | Altitude | Speed | Heading |
|---|---|---|---|---|---|
| 2026-04-29 20:43 | 45.45855 | 9.27901 | 363 ft | 0 kts | 90° |
| 2026-04-29 21:07 | 45.45855 | 9.27911 | 363 ft | 4 kts | 90° |
| 2026-04-29 21:07 | 45.45808 | 9.27982 | 363 ft | 17 kts | 174° |
| 2026-04-29 21:07 | 45.45721 | 9.27985 | 362 ft | 19 kts | 180° |
| 2026-04-29 21:07 | 45.45577 | 9.27978 | 362 ft | 12 kts | 181° |
| 2026-04-29 21:08 | 45.45506 | 9.27979 | 361 ft | 9 kts | 180° |
| 2026-04-29 21:08 | 45.45464 | 9.27939 | 361 ft | 7 kts | 248° |
| 2026-04-29 21:08 | 45.45459 | 9.27874 | 361 ft | 3 kts | 271° |
| 2026-04-29 21:08 | 45.45457 | 9.27831 | 361 ft | 5 kts | 259° |
| 2026-04-29 21:09 | 45.45456 | 9.27822 | 361 ft | 1 kts | 256° |
| 2026-04-29 21:09 | 45.45453 | 9.27806 | 361 ft | 2 kts | 256° |
| 2026-04-29 21:09 | 45.45445 | 9.27779 | 360 ft | 3 kts | 237° |
| 2026-04-29 21:09 | 45.45423 | 9.27747 | 360 ft | 5 kts | 217° |
| 2026-04-29 21:10 | 45.45385 | 9.27715 | 360 ft | 7 kts | 211° |
| 2026-04-29 21:10 | 45.45335 | 9.27678 | 359 ft | 8 kts | 205° |
| 2026-04-29 21:10 | 45.45272 | 9.27646 | 359 ft | 10 kts | 193° |
| 2026-04-29 21:10 | 45.45195 | 9.27635 | 358 ft | 11 kts | 178° |
| 2026-04-29 21:11 | 45.45054 | 9.27647 | 358 ft | 48 kts | 173° |
| 2026-04-29 21:11 | 45.44455 | 9.27713 | 354 ft | 123 kts | 174° |
| 2026-04-29 21:11 | 45.43393 | 9.27849 | 410 ft | 175 kts | 175° |
| 2026-04-29 21:11 | 45.42205 | 9.27991 | 1172 ft | 169 kts | 178° |
| 2026-04-29 21:12 | 45.41042 | 9.28104 | 1881 ft | 168 kts | 178° |
| 2026-04-29 21:12 | 45.39872 | 9.28211 | 2483 ft | 176 kts | 179° |
| 2026-04-29 21:12 | 45.38604 | 9.28327 | 2957 ft | 191 kts | 178° |
| 2026-04-29 21:12 | 45.37204 | 9.28477 | 3405 ft | 209 kts | 177° |
| 2026-04-29 21:13 | 45.35688 | 9.28633 | 3869 ft | 228 kts | 178° |
| 2026-04-29 21:13 | 45.34064 | 9.28813 | 4483 ft | 240 kts | 176° |
| 2026-04-29 21:13 | 45.32381 | 9.28981 | 5150 ft | 252 kts | 176° |
| 2026-04-29 21:13 | 45.30603 | 9.29183 | 5951 ft | 258 kts | 176° |
| 2026-04-29 21:14 | 45.28833 | 9.29415 | 6793 ft | 262 kts | 177° |
| 2026-04-29 21:14 | 45.27012 | 9.29603 | 7665 ft | 265 kts | 177° |
| 2026-04-29 21:14 | 45.25180 | 9.29790 | 8555 ft | 267 kts | 177° |
| 2026-04-29 21:14 | 45.23349 | 9.30131 | 9384 ft | 271 kts | 162° |
| 2026-04-29 21:15 | 45.21735 | 9.31478 | 10168 ft | 276 kts | 134° |
| 2026-04-29 21:15 | 45.20718 | 9.33737 | 10889 ft | 281 kts | 107° |
| 2026-04-29 21:15 | 45.20526 | 9.36533 | 11386 ft | 293 kts | 84° |
| 2026-04-29 21:15 | 45.20731 | 9.39463 | 12050 ft | 302 kts | 82° |
| 2026-04-29 21:16 | 45.20947 | 9.42408 | 12808 ft | 307 kts | 83° |
| 2026-04-29 21:16 | 45.21137 | 9.45406 | 13604 ft | 309 kts | 83° |
| 2026-04-29 21:16 | 45.21323 | 9.48461 | 14360 ft | 313 kts | 84° |
| 2026-04-29 21:16 | 45.21163 | 9.51551 | 15058 ft | 319 kts | 107° |
| 2026-04-29 21:17 | 45.20085 | 9.54288 | 15716 ft | 325 kts | 132° |
| 2026-04-29 21:17 | 45.18264 | 9.56225 | 16103 ft | 337 kts | 156° |
| 2026-04-29 21:17 | 45.16040 | 9.57428 | 16409 ft | 353 kts | 161° |
| 2026-04-29 21:17 | 45.13669 | 9.58637 | 16699 ft | 369 kts | 160° |
| 2026-04-29 21:18 | 45.11237 | 9.59953 | 16980 ft | 384 kts | 156° |
| 2026-04-29 21:18 | 45.09015 | 9.62132 | 17399 ft | 393 kts | 133° |
| 2026-04-29 21:18 | 45.07524 | 9.65324 | 18028 ft | 392 kts | 112° |
| 2026-04-29 21:18 | 45.06625 | 9.68977 | 18655 ft | 394 kts | 107° |
| 2026-04-29 21:19 | 45.05788 | 9.72707 | 19209 ft | 399 kts | 107° |
| 2026-04-29 21:19 | 45.04945 | 9.76423 | 19752 ft | 402 kts | 107° |
| 2026-04-29 21:19 | 45.04129 | 9.79938 | 20247 ft | 405 kts | 108° |
| 2026-04-29 21:19 | 45.03231 | 9.83739 | 20772 ft | 408 kts | 108° |
| 2026-04-29 21:20 | 45.02316 | 9.87571 | 21280 ft | 410 kts | 108° |
| 2026-04-29 21:20 | 45.01387 | 9.91349 | 21746 ft | 414 kts | 111° |
| 2026-04-29 21:20 | 44.99947 | 9.94927 | 22195 ft | 419 kts | 128° |
| 2026-04-29 21:20 | 44.97889 | 9.97789 | 22661 ft | 422 kts | 143° |
| 2026-04-29 21:21 | 44.95406 | 9.99987 | 23156 ft | 424 kts | 150° |
| 2026-04-29 21:21 | 44.92834 | 10.02059 | 23617 ft | 427 kts | 150° |
| 2026-04-29 21:21 | 44.90216 | 10.04157 | 24066 ft | 430 kts | 150° |
| 2026-04-29 21:21 | 44.87618 | 10.06257 | 24502 ft | 433 kts | 150° |
| 2026-04-29 21:22 | 44.84999 | 10.08391 | 24925 ft | 436 kts | 150° |
| 2026-04-29 21:22 | 44.82356 | 10.10556 | 25343 ft | 439 kts | 150° |
| 2026-04-29 21:22 | 44.79714 | 10.12724 | 25751 ft | 441 kts | 150° |
| 2026-04-29 21:22 | 44.77056 | 10.14904 | 26145 ft | 444 kts | 150° |
| 2026-04-29 21:23 | 44.74395 | 10.17084 | 26530 ft | 447 kts | 150° |
| 2026-04-29 21:23 | 44.71744 | 10.19377 | 26905 ft | 449 kts | 147° |
| 2026-04-29 21:23 | 44.69170 | 10.21890 | 27273 ft | 452 kts | 143° |
| 2026-04-29 21:23 | 44.66689 | 10.24542 | 27634 ft | 454 kts | 142° |
| 2026-04-29 21:24 | 44.64160 | 10.27267 | 27993 ft | 456 kts | 142° |
| 2026-04-29 21:24 | 44.61621 | 10.30002 | 28335 ft | 459 kts | 142° |
| 2026-04-29 21:24 | 44.59089 | 10.32725 | 28669 ft | 461 kts | 142° |
| 2026-04-29 21:24 | 44.56561 | 10.35437 | 29000 ft | 464 kts | 142° |
| 2026-04-29 21:25 | 44.54252 | 10.37911 | 29288 ft | 465 kts | 142° |
| 2026-04-29 21:25 | 44.51654 | 10.40689 | 29672 ft | 466 kts | 142° |
| 2026-04-29 21:25 | 44.49117 | 10.43400 | 30120 ft | 464 kts | 142° |
| 2026-04-29 21:25 | 44.46540 | 10.46151 | 30564 ft | 463 kts | 142° |
| 2026-04-29 21:26 | 44.44007 | 10.48851 | 30960 ft | 461 kts | 142° |
| 2026-04-29 21:26 | 44.41455 | 10.51567 | 31341 ft | 461 kts | 142° |
| 2026-04-29 21:26 | 44.38911 | 10.54327 | 31728 ft | 460 kts | 140° |
| 2026-04-29 21:26 | 44.36492 | 10.57230 | 32110 ft | 460 kts | 137° |
| 2026-04-29 21:27 | 44.34903 | 10.59264 | 32372 ft | 459 kts | 137° |
| 2026-04-29 21:27 | 44.31803 | 10.63249 | 32868 ft | 458 kts | 137° |
| 2026-04-29 21:27 | 44.29473 | 10.66244 | 33224 ft | 457 kts | 137° |
| 2026-04-29 21:27 | 44.27112 | 10.69273 | 33578 ft | 457 kts | 137° |
| 2026-04-29 21:28 | 44.24777 | 10.72263 | 33917 ft | 456 kts | 137° |
| 2026-04-29 21:28 | 44.22441 | 10.75251 | 34250 ft | 455 kts | 137° |
| 2026-04-29 21:28 | 44.20128 | 10.78206 | 34575 ft | 455 kts | 137° |
| 2026-04-29 21:28 | 44.17802 | 10.81173 | 34891 ft | 454 kts | 137° |
| 2026-04-29 21:29 | 44.15455 | 10.84165 | 35200 ft | 453 kts | 137° |
| 2026-04-29 21:29 | 44.13158 | 10.87091 | 35491 ft | 453 kts | 137° |
| 2026-04-29 21:29 | 44.10831 | 10.90049 | 35734 ft | 453 kts | 137° |
| 2026-04-29 21:29 | 44.08495 | 10.93014 | 35941 ft | 454 kts | 137° |
| 2026-04-29 21:30 | 44.06147 | 10.95941 | 36147 ft | 455 kts | 140° |
| 2026-04-29 21:30 | 44.03680 | 10.98709 | 36335 ft | 456 kts | 143° |
| 2026-04-29 21:30 | 44.01074 | 11.01288 | 36506 ft | 457 kts | 147° |
| 2026-04-29 21:30 | 43.98401 | 11.03608 | 36669 ft | 458 kts | 150° |
| 2026-04-29 21:31 | 43.95605 | 11.05762 | 36828 ft | 459 kts | 152° |
| 2026-04-29 21:31 | 43.92779 | 11.07900 | 36981 ft | 460 kts | 152° |
| 2026-04-29 21:31 | 43.89977 | 11.10019 | 37125 ft | 461 kts | 152° |
| 2026-04-29 21:32 | 43.84303 | 11.14310 | 37197 ft | 462 kts | 151° |
| 2026-04-29 21:32 | 43.78664 | 11.18583 | 37201 ft | 463 kts | 151° |
| 2026-04-29 21:33 | 43.72998 | 11.22865 | 37202 ft | 463 kts | 151° |
| 2026-04-29 21:33 | 43.67386 | 11.27096 | 37202 ft | 463 kts | 151° |
| 2026-04-29 21:34 | 43.61718 | 11.31358 | 37202 ft | 463 kts | 151° |
| 2026-04-29 21:34 | 43.56056 | 11.35490 | 37201 ft | 462 kts | 154° |
| 2026-04-29 21:35 | 43.50103 | 11.38882 | 37202 ft | 462 kts | 160° |
| 2026-04-29 21:35 | 43.44087 | 11.41966 | 37202 ft | 462 kts | 160° |
| 2026-04-29 21:36 | 43.38085 | 11.45041 | 37202 ft | 462 kts | 160° |
| 2026-04-29 21:36 | 43.32068 | 11.48122 | 37202 ft | 462 kts | 160° |
| 2026-04-29 21:37 | 43.26070 | 11.51187 | 37202 ft | 462 kts | 160° |
| 2026-04-29 21:37 | 43.20012 | 11.54278 | 37203 ft | 462 kts | 160° |
| 2026-04-29 21:38 | 43.13929 | 11.57376 | 37202 ft | 462 kts | 159° |
| 2026-04-29 21:38 | 43.07883 | 11.60451 | 37202 ft | 462 kts | 159° |
| 2026-04-29 21:39 | 43.01795 | 11.63538 | 37202 ft | 462 kts | 160° |
| 2026-04-29 21:39 | 42.95889 | 11.66527 | 37202 ft | 462 kts | 160° |
| 2026-04-29 21:40 | 42.89821 | 11.69590 | 37202 ft | 462 kts | 160° |
| 2026-04-29 21:40 | 42.83769 | 11.72639 | 37202 ft | 462 kts | 160° |
| 2026-04-29 21:41 | 42.77714 | 11.75683 | 37202 ft | 462 kts | 160° |
| 2026-04-29 21:41 | 42.71654 | 11.78723 | 37202 ft | 462 kts | 160° |
| 2026-04-29 21:42 | 42.65599 | 11.81754 | 37202 ft | 462 kts | 160° |
| 2026-04-29 21:42 | 42.60548 | 11.84278 | 37202 ft | 462 kts | 160° |
| 2026-04-29 21:43 | 42.53504 | 11.87790 | 37202 ft | 462 kts | 160° |
| 2026-04-29 21:43 | 42.47456 | 11.90799 | 37202 ft | 462 kts | 160° |
| 2026-04-29 21:44 | 42.41406 | 11.93803 | 37203 ft | 462 kts | 160° |
| 2026-04-29 21:44 | 42.35365 | 11.96796 | 37203 ft | 462 kts | 160° |
| 2026-04-29 21:45 | 42.29288 | 11.99801 | 37203 ft | 462 kts | 160° |
| 2026-04-29 21:45 | 42.23269 | 12.02771 | 37203 ft | 462 kts | 160° |
| 2026-04-29 21:46 | 42.17173 | 12.05773 | 37203 ft | 462 kts | 160° |
| 2026-04-29 21:46 | 42.11113 | 12.08751 | 37203 ft | 462 kts | 160° |
| 2026-04-29 21:47 | 42.05075 | 12.11712 | 37204 ft | 462 kts | 160° |
| 2026-04-29 21:47 | 41.99004 | 12.14683 | 37204 ft | 462 kts | 160° |
| 2026-04-29 21:48 | 41.92986 | 12.17623 | 37204 ft | 462 kts | 160° |
| 2026-04-29 21:48 | 41.86891 | 12.20594 | 37204 ft | 462 kts | 160° |
| 2026-04-29 21:49 | 41.80880 | 12.23621 | 37204 ft | 462 kts | 157° |
| 2026-04-29 21:49 | 41.75302 | 12.27195 | 37205 ft | 463 kts | 153° |
| 2026-04-29 21:50 | 41.69544 | 12.31116 | 37204 ft | 463 kts | 153° |
| 2026-04-29 21:50 | 41.63815 | 12.35007 | 37204 ft | 463 kts | 153° |
| 2026-04-29 21:51 | 41.58064 | 12.38901 | 37204 ft | 463 kts | 153° |
| 2026-04-29 21:51 | 41.49496 | 12.44688 | 37204 ft | 463 kts | 153° |
| 2026-04-29 21:52 | 41.43740 | 12.48564 | 37204 ft | 463 kts | 153° |
| 2026-04-29 21:52 | 41.37965 | 12.52446 | 37205 ft | 463 kts | 153° |
| 2026-04-29 21:53 | 41.32245 | 12.56283 | 37205 ft | 463 kts | 153° |
| 2026-04-29 21:53 | 41.26467 | 12.60152 | 37205 ft | 463 kts | 153° |
| 2026-04-29 21:54 | 41.20729 | 12.63985 | 37205 ft | 463 kts | 153° |
| 2026-04-29 21:54 | 41.14962 | 12.67831 | 37205 ft | 463 kts | 154° |
| 2026-04-29 21:55 | 41.09156 | 12.71695 | 37205 ft | 463 kts | 154° |
| 2026-04-29 21:55 | 41.03405 | 12.75515 | 37204 ft | 462 kts | 154° |
| 2026-04-29 21:56 | 40.97652 | 12.79329 | 37205 ft | 463 kts | 154° |
| 2026-04-29 21:56 | 40.91888 | 12.83142 | 37205 ft | 463 kts | 154° |
| 2026-04-29 21:57 | 40.86159 | 12.86925 | 37205 ft | 463 kts | 154° |
| 2026-04-29 21:57 | 40.80412 | 12.90712 | 37205 ft | 463 kts | 154° |
| 2026-04-29 21:58 | 40.74625 | 12.94519 | 37205 ft | 463 kts | 154° |
| 2026-04-29 21:58 | 40.68882 | 12.98289 | 37205 ft | 463 kts | 154° |
| 2026-04-29 21:59 | 40.63135 | 13.02054 | 37205 ft | 463 kts | 154° |
| 2026-04-29 21:59 | 40.57671 | 13.05627 | 37205 ft | 463 kts | 154° |
| 2026-04-29 22:00 | 40.51952 | 13.09361 | 37205 ft | 463 kts | 154° |
| 2026-04-29 22:00 | 40.46160 | 13.13134 | 37205 ft | 463 kts | 154° |
| 2026-04-29 22:01 | 40.40430 | 13.16860 | 37205 ft | 463 kts | 154° |
| 2026-04-29 22:01 | 40.34652 | 13.20610 | 37205 ft | 463 kts | 154° |
| 2026-04-29 22:02 | 40.28883 | 13.24347 | 37205 ft | 463 kts | 154° |
| 2026-04-29 22:02 | 40.23125 | 13.28069 | 37205 ft | 463 kts | 154° |
| 2026-04-29 22:03 | 40.17358 | 13.31791 | 37205 ft | 463 kts | 154° |
| 2026-04-29 22:03 | 40.11609 | 13.35493 | 37205 ft | 463 kts | 154° |
| 2026-04-29 22:04 | 40.05794 | 13.39230 | 37205 ft | 463 kts | 154° |
| 2026-04-29 22:04 | 40.00071 | 13.42902 | 37205 ft | 463 kts | 154° |
| 2026-04-29 22:05 | 39.94254 | 13.46627 | 37205 ft | 463 kts | 154° |
| 2026-04-29 22:06 | 39.85587 | 13.52165 | 37204 ft | 463 kts | 154° |
| 2026-04-29 22:06 | 39.79802 | 13.55852 | 37205 ft | 463 kts | 154° |
| 2026-04-29 22:07 | 39.74011 | 13.59536 | 37205 ft | 463 kts | 154° |
| 2026-04-29 22:07 | 39.68239 | 13.63201 | 37205 ft | 463 kts | 154° |
| 2026-04-29 22:08 | 39.62445 | 13.66873 | 37204 ft | 463 kts | 154° |
| 2026-04-29 22:08 | 39.56822 | 13.70431 | 37205 ft | 463 kts | 154° |
| 2026-04-29 22:09 | 39.51058 | 13.74071 | 37205 ft | 463 kts | 154° |
| 2026-04-29 22:09 | 39.45405 | 13.77634 | 37205 ft | 463 kts | 154° |
| 2026-04-29 22:10 | 39.39618 | 13.81254 | 37205 ft | 462 kts | 155° |
| 2026-04-29 22:10 | 39.33812 | 13.84812 | 37204 ft | 462 kts | 155° |
| 2026-04-29 22:11 | 39.28018 | 13.88355 | 37204 ft | 462 kts | 155° |
| 2026-04-29 22:11 | 39.22202 | 13.91910 | 37204 ft | 462 kts | 155° |
| 2026-04-29 22:12 | 39.16392 | 13.95457 | 37204 ft | 462 kts | 155° |
| 2026-04-29 22:12 | 39.10580 | 13.98999 | 37204 ft | 462 kts | 155° |
| 2026-04-29 22:13 | 39.04775 | 14.02530 | 37204 ft | 462 kts | 155° |
| 2026-04-29 22:13 | 38.98943 | 14.06072 | 37204 ft | 462 kts | 155° |
| 2026-04-29 22:14 | 38.93133 | 14.09593 | 37205 ft | 462 kts | 155° |
| 2026-04-29 22:14 | 38.87270 | 14.13141 | 37204 ft | 462 kts | 155° |
| 2026-04-29 22:15 | 38.81443 | 14.16659 | 37204 ft | 462 kts | 155° |
| 2026-04-29 22:15 | 38.75606 | 14.20180 | 37205 ft | 462 kts | 155° |
| 2026-04-29 22:16 | 38.69855 | 14.23642 | 36567 ft | 452 kts | 155° |
| 2026-04-29 22:16 | 38.67028 | 14.25342 | 35185 ft | 458 kts | 155° |
| 2026-04-29 22:16 | 38.64120 | 14.27087 | 33531 ft | 465 kts | 155° |
| 2026-04-29 22:16 | 38.61215 | 14.28830 | 32693 ft | 457 kts | 155° |
| 2026-04-29 22:17 | 38.58335 | 14.30557 | 32136 ft | 459 kts | 155° |
| 2026-04-29 22:17 | 38.55472 | 14.32271 | 31458 ft | 461 kts | 155° |
| 2026-04-29 22:17 | 38.52552 | 14.34012 | 30714 ft | 461 kts | 155° |
| 2026-04-29 22:17 | 38.49667 | 14.35740 | 29951 ft | 462 kts | 155° |
| 2026-04-29 22:18 | 38.46769 | 14.37473 | 29149 ft | 463 kts | 155° |
| 2026-04-29 22:18 | 38.43880 | 14.39196 | 28562 ft | 459 kts | 155° |
| 2026-04-29 22:18 | 38.41018 | 14.40900 | 28059 ft | 453 kts | 155° |
| 2026-04-29 22:18 | 38.38156 | 14.42600 | 27539 ft | 447 kts | 155° |
| 2026-04-29 22:19 | 38.35370 | 14.44258 | 27023 ft | 442 kts | 155° |
| 2026-04-29 22:19 | 38.32610 | 14.45904 | 26508 ft | 437 kts | 155° |
| 2026-04-29 22:19 | 38.29955 | 14.47489 | 26009 ft | 434 kts | 155° |
| 2026-04-29 22:19 | 38.27253 | 14.49099 | 25498 ft | 430 kts | 155° |
| 2026-04-29 22:20 | 38.24558 | 14.50701 | 24986 ft | 426 kts | 155° |
| 2026-04-29 22:20 | 38.21878 | 14.52291 | 24474 ft | 422 kts | 155° |
| 2026-04-29 22:20 | 38.19229 | 14.53861 | 23965 ft | 418 kts | 155° |
| 2026-04-29 22:20 | 38.16605 | 14.55414 | 23457 ft | 415 kts | 155° |
| 2026-04-29 22:21 | 38.14028 | 14.56938 | 22956 ft | 412 kts | 155° |
| 2026-04-29 22:21 | 38.11425 | 14.58476 | 22448 ft | 409 kts | 155° |
| 2026-04-29 22:21 | 38.08860 | 14.59990 | 21945 ft | 406 kts | 155° |
| 2026-04-29 22:21 | 38.06316 | 14.61491 | 21445 ft | 403 kts | 155° |
| 2026-04-29 22:22 | 38.03786 | 14.62981 | 20946 ft | 401 kts | 155° |
| 2026-04-29 22:22 | 38.01257 | 14.64469 | 20446 ft | 398 kts | 155° |
| 2026-04-29 22:22 | 37.98756 | 14.65940 | 19951 ft | 396 kts | 155° |
| 2026-04-29 22:22 | 37.96269 | 14.67397 | 19457 ft | 393 kts | 156° |
| 2026-04-29 22:23 | 37.93714 | 14.68606 | 18961 ft | 391 kts | 164° |
| 2026-04-29 22:23 | 37.91087 | 14.69408 | 18495 ft | 386 kts | 171° |
| 2026-04-29 22:23 | 37.88424 | 14.69681 | 17989 ft | 381 kts | 187° |
| 2026-04-29 22:23 | 37.85941 | 14.68706 | 17482 ft | 375 kts | 211° |
| 2026-04-29 22:24 | 37.83966 | 14.66674 | 16989 ft | 369 kts | 232° |
| 2026-04-29 22:24 | 37.82634 | 14.63943 | 16508 ft | 363 kts | 247° |
| 2026-04-29 22:24 | 37.81596 | 14.61036 | 16026 ft | 361 kts | 248° |
| 2026-04-29 22:24 | 37.80556 | 14.58138 | 15538 ft | 360 kts | 248° |
| 2026-04-29 22:25 | 37.79508 | 14.55289 | 15056 ft | 359 kts | 247° |
| 2026-04-29 22:25 | 37.78447 | 14.52429 | 14569 ft | 358 kts | 247° |
| 2026-04-29 22:25 | 37.77373 | 14.49629 | 14206 ft | 352 kts | 247° |
| 2026-04-29 22:25 | 37.76035 | 14.47085 | 13997 ft | 350 kts | 226° |
| 2026-04-29 22:26 | 37.73971 | 14.45507 | 13795 ft | 351 kts | 199° |
| 2026-04-29 22:26 | 37.71531 | 14.45230 | 13623 ft | 352 kts | 176° |
| 2026-04-29 22:26 | 37.69105 | 14.45586 | 13463 ft | 350 kts | 174° |
| 2026-04-29 22:26 | 37.66718 | 14.45927 | 13325 ft | 348 kts | 175° |
| 2026-04-29 22:27 | 37.64361 | 14.46443 | 13084 ft | 341 kts | 160° |
| 2026-04-29 22:27 | 37.62448 | 14.48072 | 12910 ft | 328 kts | 130° |
| 2026-04-29 22:27 | 37.61424 | 14.50548 | 12597 ft | 319 kts | 100° |
| 2026-04-29 22:27 | 37.61505 | 14.53243 | 12290 ft | 306 kts | 71° |
| 2026-04-29 22:28 | 37.62206 | 14.55759 | 11998 ft | 298 kts | 70° |
| 2026-04-29 22:28 | 37.62729 | 14.58236 | 11751 ft | 293 kts | 76° |
| 2026-04-29 22:28 | 37.63068 | 14.60755 | 11451 ft | 289 kts | 80° |
| 2026-04-29 22:28 | 37.63295 | 14.63243 | 11203 ft | 281 kts | 82° |
| 2026-04-29 22:29 | 37.63415 | 14.64852 | 11162 ft | 271 kts | 83° |
| 2026-04-29 22:29 | 37.63630 | 14.67937 | 11188 ft | 264 kts | 83° |
| 2026-04-29 22:29 | 37.63764 | 14.70082 | 11193 ft | 265 kts | 87° |
| 2026-04-29 22:29 | 37.63403 | 14.72344 | 10967 ft | 270 kts | 118° |
| 2026-04-29 22:30 | 37.62088 | 14.74010 | 10611 ft | 269 kts | 155° |
| 2026-04-29 22:30 | 37.60301 | 14.74525 | 10317 ft | 263 kts | 178° |
| 2026-04-29 22:30 | 37.58481 | 14.74675 | 10030 ft | 262 kts | 177° |
| 2026-04-29 22:30 | 37.56667 | 14.74860 | 9730 ft | 260 kts | 180° |
| 2026-04-29 22:31 | 37.54940 | 14.74444 | 9479 ft | 248 kts | 214° |
| 2026-04-29 22:31 | 37.53831 | 14.72949 | 9280 ft | 234 kts | 250° |
| 2026-04-29 22:31 | 37.53518 | 14.70988 | 9020 ft | 227 kts | 269° |
| 2026-04-29 22:31 | 37.53426 | 14.69003 | 8757 ft | 227 kts | 268° |
| 2026-04-29 22:32 | 37.53303 | 14.67020 | 8488 ft | 226 kts | 267° |
| 2026-04-29 22:32 | 37.53157 | 14.65069 | 8223 ft | 225 kts | 267° |
| 2026-04-29 22:32 | 37.52997 | 14.63107 | 8160 ft | 226 kts | 266° |
| 2026-04-29 22:32 | 37.52828 | 14.61128 | 8186 ft | 228 kts | 266° |
| 2026-04-29 22:33 | 37.52656 | 14.59152 | 8198 ft | 228 kts | 266° |
| 2026-04-29 22:33 | 37.52481 | 14.57171 | 8202 ft | 228 kts | 266° |
| 2026-04-29 22:33 | 37.52306 | 14.55185 | 8204 ft | 228 kts | 266° |
| 2026-04-29 22:33 | 37.52130 | 14.53198 | 8205 ft | 228 kts | 266° |
| 2026-04-29 22:34 | 37.51953 | 14.51205 | 8205 ft | 228 kts | 266° |
| 2026-04-29 22:34 | 37.51778 | 14.49236 | 8205 ft | 228 kts | 266° |
| 2026-04-29 22:34 | 37.51592 | 14.47230 | 8205 ft | 229 kts | 263° |
| 2026-04-29 22:34 | 37.50964 | 14.45411 | 8183 ft | 235 kts | 229° |
| 2026-04-29 22:35 | 37.49561 | 14.44351 | 8198 ft | 242 kts | 194° |
| 2026-04-29 22:35 | 37.47873 | 14.44350 | 8221 ft | 245 kts | 174° |
| 2026-04-29 22:35 | 37.46172 | 14.44648 | 8213 ft | 245 kts | 174° |
| 2026-04-29 22:35 | 37.44480 | 14.44930 | 8207 ft | 245 kts | 174° |
| 2026-04-29 22:36 | 37.42815 | 14.45426 | 7911 ft | 249 kts | 151° |
| 2026-04-29 22:36 | 37.41643 | 14.46945 | 7565 ft | 247 kts | 111° |
| 2026-04-29 22:36 | 37.41444 | 14.49009 | 7287 ft | 238 kts | 79° |
| 2026-04-29 22:36 | 37.41739 | 14.51050 | 7034 ft | 235 kts | 76° |
| 2026-04-29 22:37 | 37.42046 | 14.53058 | 6766 ft | 233 kts | 77° |
| 2026-04-29 22:37 | 37.42322 | 14.55050 | 6503 ft | 231 kts | 78° |
| 2026-04-29 22:37 | 37.42564 | 14.57046 | 6240 ft | 230 kts | 79° |
| 2026-04-29 22:37 | 37.42775 | 14.59017 | 5981 ft | 228 kts | 80° |
| 2026-04-29 22:38 | 37.42963 | 14.60980 | 5725 ft | 227 kts | 81° |
| 2026-04-29 22:38 | 37.43134 | 14.62935 | 5471 ft | 225 kts | 81° |
| 2026-04-29 22:38 | 37.43294 | 14.64885 | 5246 ft | 222 kts | 82° |
| 2026-04-29 22:38 | 37.43444 | 14.66799 | 5171 ft | 218 kts | 82° |
| 2026-04-29 22:39 | 37.43590 | 14.68689 | 4925 ft | 219 kts | 82° |
| 2026-04-29 22:39 | 37.43737 | 14.70599 | 4605 ft | 219 kts | 82° |
| 2026-04-29 22:39 | 37.43875 | 14.72390 | 4366 ft | 218 kts | 82° |
| 2026-04-29 22:39 | 37.44022 | 14.74297 | 4143 ft | 217 kts | 82° |
| 2026-04-29 22:40 | 37.44168 | 14.76170 | 3938 ft | 217 kts | 82° |
| 2026-04-29 22:40 | 37.44317 | 14.78065 | 3735 ft | 216 kts | 82° |
| 2026-04-29 22:40 | 37.44467 | 14.79928 | 3537 ft | 215 kts | 81° |
| 2026-04-29 22:40 | 37.44619 | 14.81799 | 3525 ft | 213 kts | 81° |
| 2026-04-29 22:41 | 37.44761 | 14.83570 | 3417 ft | 194 kts | 81° |
| 2026-04-29 22:41 | 37.44893 | 14.85215 | 3170 ft | 182 kts | 81° |
| 2026-04-29 22:41 | 37.45017 | 14.86741 | 2954 ft | 168 kts | 81° |
| 2026-04-29 22:41 | 37.45132 | 14.88142 | 2714 ft | 155 kts | 80° |
| 2026-04-29 22:42 | 37.45237 | 14.89434 | 2489 ft | 142 kts | 80° |
| 2026-04-29 22:42 | 37.45339 | 14.90655 | 2306 ft | 139 kts | 79° |
| 2026-04-29 22:42 | 37.45442 | 14.91868 | 2137 ft | 139 kts | 79° |
| 2026-04-29 22:42 | 37.45542 | 14.93061 | 1965 ft | 139 kts | 80° |
| 2026-04-29 22:43 | 37.45641 | 14.94275 | 1788 ft | 138 kts | 80° |
| 2026-04-29 22:43 | 37.45740 | 14.95480 | 1608 ft | 138 kts | 80° |
| 2026-04-29 22:43 | 37.45840 | 14.96685 | 1420 ft | 138 kts | 79° |
| 2026-04-29 22:43 | 37.45940 | 14.97885 | 1233 ft | 137 kts | 79° |
| 2026-04-29 22:44 | 37.46039 | 14.99062 | 1046 ft | 137 kts | 79° |
| 2026-04-29 22:44 | 37.46135 | 15.00264 | 855 ft | 136 kts | 79° |
| 2026-04-29 22:44 | 37.46248 | 15.01451 | 667 ft | 136 kts | 80° |
| 2026-04-29 22:44 | 37.46330 | 15.02632 | 506 ft | 136 kts | 80° |
| 2026-04-29 22:45 | 37.46433 | 15.03818 | 322 ft | 135 kts | 79° |
| 2026-04-29 22:45 | 37.46535 | 15.04988 | 141 ft | 135 kts | 79° |
| 2026-04-29 22:45 | 37.46628 | 15.06155 | 38 ft | 127 kts | 81° |
| 2026-04-29 22:45 | 37.46717 | 15.07038 | 27 ft | 61 kts | 84° |
| 2026-04-29 22:46 | 37.46739 | 15.07317 | 29 ft | 23 kts | 84° |
| 2026-04-29 22:46 | 37.46760 | 15.07520 | 30 ft | 22 kts | 80° |
| 2026-04-29 22:46 | 37.46811 | 15.07672 | 30 ft | 15 kts | 60° |
| 2026-04-29 22:46 | 37.46862 | 15.07778 | 32 ft | 11 kts | 56° |
| 2026-04-29 22:47 | 37.46879 | 15.07806 | 32 ft | 0 kts | 49° |
| 2026-04-29 22:47 | 37.46882 | 15.07808 | 32 ft | 0 kts | 10° |
| 2026-04-29 22:47 | 37.46893 | 15.07805 | 32 ft | 2 kts | 346° |
| 2026-04-29 22:47 | 37.46915 | 15.07797 | 32 ft | 3 kts | 334° |
| 2026-04-29 22:48 | 37.46931 | 15.07768 | 33 ft | 4 kts | 284° |
| 2026-04-29 22:48 | 37.46933 | 15.07724 | 33 ft | 5 kts | 269° |
| 2026-04-29 22:48 | 37.46929 | 15.07672 | 33 ft | 6 kts | 265° |
| 2026-04-29 22:48 | 37.46925 | 15.07616 | 34 ft | 7 kts | 264° |
| 2026-04-29 22:49 | 37.46915 | 15.07518 | 34 ft | 14 kts | 267° |
| 2026-04-29 22:49 | 37.46904 | 15.07378 | 32 ft | 15 kts | 264° |
| 2026-04-29 22:49 | 37.46894 | 15.07248 | 30 ft | 17 kts | 261° |
| 2026-04-29 22:49 | 37.46881 | 15.07120 | 26 ft | 12 kts | 262° |
| 2026-04-29 22:50 | 37.46873 | 15.07005 | 23 ft | 13 kts | 261° |
| 2026-04-29 22:50 | 37.46868 | 15.06958 | 23 ft | 3 kts | 266° |
| 2026-04-29 22:50 | 37.46866 | 15.06919 | 23 ft | 4 kts | 265° |
| 2026-04-29 22:50 | 37.46879 | 15.06883 | 24 ft | 5 kts | 321° |
| 2026-04-29 22:51 | 37.46892 | 15.06875 | 24 ft | 1 kts | 339° |
| 2026-04-29 22:51 | 37.46897 | 15.06873 | 24 ft | 0 kts | 347° |
| 2026-04-29 22:51 | 37.46923 | 15.06867 | 25 ft | 2 kts | 354° |
| 2026-04-29 22:52 | 37.46940 | 15.06865 | 26 ft | 0 kts | 352° |